Roelyn, Iowa
Current Conditions -  °F | °C
As of 6:55 PM on Monday 24 Nov 2014 (Local Time) from KFOD Reporting Station
Overcast Overcast  
Wind Chill: 10°   Ceiling: 2700
Heat Index: 23°   Visibility: 10mi
Dew Point: 12°   Wind: 16mph
Humidity: 63%   Direction: 300°WNW
Pressure: 29.86"   Gusts: 25mph
Location:  42.4284°N, 94.3389°W
Report Text: KFOD 250055Z AUTO 30014G22KT 10SM BKN027 OVC060 M05/M11 A2986 RMK AO1
Loading
Personal Weather Stations






























Interactive Weather Map New forecast layout! Learn more

10-Day Weather Forecast

Advertisements
Track Severe Weather on mobile